Wednesday, October 18, 2017, 5:55 PM EDT
Back to Local

KBGM, Binghamton Regional Airport

Location: Johnson City, NY, United States Lat: 42.2
Local Time: 5:55 PM EDT (21:55 GMT) Lon: -75.983
Time Zone: US/Eastern Elev: 1637 ft

Show me the last for .
Show Decoded

2017-10-18 16:53 METAR KBGM 182053Z AUTO 22005KT 10SM CLR 19/06 A3023 RMK AO2 SLP237 T01890056
                 58014 =
2017-10-18 15:53 METAR KBGM 181953Z AUTO VRB06KT 10SM CLR 19/06 A3025 RMK AO2 SLP242 T01890061 =
2017-10-18 14:53 METAR KBGM 181853Z AUTO 24010KT 10SM CLR 19/07 A3026 RMK AO2 SLP246 T01890067 =
2017-10-18 13:53 METAR KBGM 181753Z 26009KT 10SM CLR 19/07 A3027 RMK AO2 SLP251 T01890067 10189
                 20072 58012 =
2017-10-18 12:53 METAR KBGM 181653Z 28004KT 10SM CLR 17/07 A3029 RMK AO2 SLP260 T01720067 =
2017-10-18 11:53 METAR KBGM 181553Z 28005KT 10SM CLR 16/07 A3032 RMK AO2 SLP269 T01610067 =
2017-10-18 10:53 METAR KBGM 181453Z 27005KT 10SM CLR 14/06 A3031 RMK AO2 SLP267 T01390061 51009 =
2017-10-18 09:53 METAR KBGM 181353Z 25008KT 10SM CLR 11/04 A3031 RMK AO2 SLP269 T01110044 =
2017-10-18 08:53 METAR KBGM 181253Z 24007KT 10SM CLR 09/03 A3031 RMK AO2 SLP268 T00940033 =
2017-10-18 07:53 METAR KBGM 181153Z 25006KT 10SM CLR 07/03 A3028 RMK AO2 SLP262 T00670028 10083
                 20061 51014 =
2017-10-18 06:53 METAR KBGM 181053Z 25008KT 10SM CLR 07/03 A3027 RMK AO2 SLP257 T00670028 =
2017-10-18 05:53 METAR KBGM 180953Z 25008KT 10SM CLR 08/03 A3026 RMK AO2 SLP251 T00780028 =
2017-10-18 04:53 METAR KBGM 180853Z AUTO 24006KT 10SM CLR 07/02 A3024 RMK AO2 SLP245 T00720022
                 53005 =
2017-10-18 03:53 METAR KBGM 180753Z AUTO 24007KT 10SM CLR 08/02 A3023 RMK AO2 SLP239 T00780022 =
2017-10-18 02:53 METAR KBGM 180653Z AUTO 23006KT 10SM CLR 08/02 A3022 RMK AO2 SLP239 T00830022 =
2017-10-18 01:53 METAR KBGM 180553Z AUTO 22006KT 10SM CLR 08/02 A3022 RMK AO2 SLP240 T00830022
                 10100 20078 50001 =
2017-10-18 00:53 METAR KBGM 180453Z 22008KT 10SM CLR 08/02 A3023 RMK AO2 SLP241 T00830017
                 401281006 =
2017-10-17 23:53 METAR KBGM 180353Z 18005KT 10SM CLR 08/01 A3023 RMK AO2 SLP242 T00780011 =
2017-10-17 22:53 METAR KBGM 180253Z 21006KT 10SM CLR 08/01 A3022 RMK AO2 SLP242 T00830011 53011 =
2017-10-17 21:53 METAR KBGM 180153Z 21006KT 10SM CLR 09/01 A3021 RMK AO2 SLP239 T00890011 =
2017-10-17 20:53 METAR KBGM 180053Z 21007KT 10SM CLR 09/01 A3020 RMK AO2 SLP236 T00890006 =
2017-10-17 19:53 METAR KBGM 172353Z 21008KT 10SM CLR 09/01 A3019 RMK AO2 SLP234 T00940006 10128
                 20094 55000 =
2017-10-17 18:53 METAR KBGM 172253Z 20005KT 10SM CLR 10/00 A3018 RMK AO2 SLP232 T01000000 =

Support USWX by starting your Amazon purchase here.